createdAt,value
2022-09-20T00:00:06.242Z,100067.78
2022-09-20T00:02:32.839Z,100061.91
2022-09-20T00:04:59.441Z,100050.50
2022-09-20T00:07:26.126Z,100051.28
2022-09-20T00:09:52.691Z,100058.97
2022-09-20T00:12:19.261Z,100054.31
2022-09-20T00:14:45.856Z,100051.69
2022-09-20T00:17:12.427Z,100047.75
2022-09-20T00:19:39.037Z,100047.31
2022-09-20T00:22:05.662Z,100041.94
2022-09-20T00:24:32.267Z,100044.84
2022-09-20T00:26:58.837Z,100040.00
2022-09-20T00:29:25.496Z,100035.34
2022-09-20T00:31:52.121Z,100045.72
2022-09-20T00:34:18.760Z,100037.94
2022-09-20T00:36:45.478Z,100047.00
2022-09-20T00:39:14.232Z,100052.50
2022-09-20T00:41:40.820Z,100041.22
2022-09-20T00:44:44.641Z,100031.44
2022-09-20T00:47:28.478Z,100032.06
2022-09-20T00:50:06.931Z,100031.44
2022-09-20T00:52:35.870Z,100028.88
2022-09-20T00:55:07.280Z,100021.88
2022-09-20T00:57:34.832Z,100031.63
2022-09-20T01:00:07.462Z,100040.38
2022-09-20T01:02:37.848Z,100030.91
2022-09-20T01:05:05.137Z,100024.53
2022-09-20T01:07:31.776Z,100025.38
2022-09-20T01:09:58.351Z,100026.09
2022-09-20T01:12:30.519Z,100036.97
2022-09-20T01:14:59.608Z,100021.75
2022-09-20T01:17:29.515Z,100027.94
2022-09-20T01:20:00.406Z,100028.97
2022-09-20T01:22:55.910Z,100029.38
2022-09-20T01:25:53.487Z,100033.66
2022-09-20T01:28:21.368Z,100041.69
2022-09-20T01:31:15.970Z,100034.13
2022-09-20T01:33:52.770Z,100041.03
2022-09-20T01:36:36.728Z,100041.00
2022-09-20T01:39:12.369Z,100041.06
2022-09-20T01:41:50.118Z,100045.50
2022-09-20T01:44:24.429Z,100038.41
2022-09-20T01:46:57.116Z,100035.88
2022-09-20T01:49:23.758Z,100042.59
2022-09-20T01:52:05.400Z,100042.06
2022-09-20T01:55:04.201Z,100044.63
2022-09-20T01:57:55.798Z,100039.28
2022-09-20T02:00:53.238Z,100034.03
2022-09-20T02:03:34.951Z,100033.91
2022-09-20T02:06:23.068Z,100027.97
2022-09-20T02:09:22.000Z,100026.78
2022-09-20T02:11:57.423Z,100045.66
2022-09-20T02:14:56.154Z,100039.22
2022-09-20T02:17:28.125Z,100037.22
2022-09-20T02:20:03.731Z,100052.09
2022-09-20T02:22:39.247Z,100046.38
2022-09-20T02:25:23.975Z,100042.44
2022-09-20T02:28:28.960Z,100047.84
2022-09-20T02:31:27.889Z,100046.97
2022-09-20T02:34:23.541Z,100053.91
2022-09-20T02:37:10.234Z,100052.00
2022-09-20T02:39:57.522Z,100064.47
2022-09-20T02:42:41.487Z,100060.13
2022-09-20T02:45:18.979Z,100056.63
2022-09-20T02:47:47.501Z,100065.44
2022-09-20T02:50:31.818Z,100062.78
2022-09-20T02:53:29.404Z,100073.41
2022-09-20T02:56:02.116Z,100075.28
2022-09-20T02:58:41.021Z,100073.69
2022-09-20T03:01:29.333Z,100076.28
2022-09-20T03:04:23.683Z,100080.69
2022-09-20T03:07:23.147Z,100078.91
2022-09-20T03:10:04.143Z,100073.78
2022-09-20T03:12:33.797Z,100082.22
2022-09-20T03:15:25.033Z,100084.84
2022-09-20T03:18:06.518Z,100081.38
2022-09-20T03:20:41.258Z,100079.06
2022-09-20T03:24:00.891Z,100088.50
2022-09-20T03:27:02.623Z,100080.97
2022-09-20T03:29:40.953Z,100077.91
2022-09-20T03:32:46.266Z,100079.50
2022-09-20T03:35:29.244Z,100071.25
2022-09-20T03:38:11.023Z,100078.28
2022-09-20T03:41:02.226Z,100086.38
2022-09-20T03:43:53.063Z,100082.84
2022-09-20T03:46:22.021Z,100091.91
2022-09-20T03:49:10.055Z,100093.06
2022-09-20T03:52:12.896Z,100104.28
2022-09-20T03:54:54.572Z,100103.22
2022-09-20T03:57:42.884Z,100100.75
2022-09-20T04:00:47.114Z,100102.50
2022-09-20T04:03:44.573Z,100096.03
2022-09-20T04:06:29.583Z,100097.81
2022-09-20T04:09:14.775Z,100099.00
2022-09-20T04:12:15.127Z,100097.41
2022-09-20T04:14:59.733Z,100096.00
2022-09-20T04:18:03.093Z,100101.03
2022-09-20T04:20:44.014Z,100102.34
2022-09-20T04:23:36.839Z,100100.41
2022-09-20T04:26:04.571Z,100098.16
2022-09-20T04:28:39.962Z,100098.38
2022-09-20T04:31:23.965Z,100106.31
2022-09-20T04:33:54.580Z,100107.50
2022-09-20T04:36:51.725Z,100104.16
2022-09-20T04:39:34.567Z,100101.44
2022-09-20T04:43:05.972Z,100102.38
2022-09-20T04:45:41.665Z,100101.63
2022-09-20T04:48:34.664Z,100106.69
2022-09-20T04:51:26.267Z,100106.78
2022-09-20T04:54:20.458Z,100109.28
2022-09-20T04:57:19.051Z,100108.25
2022-09-20T05:00:08.213Z,100104.69
2022-09-20T05:02:40.764Z,100107.31
2022-09-20T05:05:31.998Z,100106.53
2022-09-20T05:08:39.630Z,100111.16
2022-09-20T05:11:39.575Z,100101.56
2022-09-20T05:14:27.941Z,100107.47
2022-09-20T05:17:13.271Z,100108.16
2022-09-20T05:19:54.166Z,100118.34
2022-09-20T05:22:38.507Z,100121.91
2022-09-20T05:25:29.852Z,100127.66
2022-09-20T05:28:10.430Z,100133.22
2022-09-20T05:30:44.741Z,100119.38
2022-09-20T05:33:34.799Z,100117.00
2022-09-20T05:36:05.330Z,100110.63
2022-09-20T05:39:05.440Z,100115.56
2022-09-20T05:41:58.263Z,100121.53
2022-09-20T05:44:41.726Z,100127.59
2022-09-20T05:47:24.758Z,100131.03
2022-09-20T05:50:00.247Z,100141.00
2022-09-20T05:52:43.159Z,100134.06
2022-09-20T05:55:37.643Z,100146.97
2022-09-20T05:58:47.751Z,100143.47
2022-09-20T06:01:27.038Z,100151.28
2022-09-20T06:04:15.361Z,100146.88
2022-09-20T06:06:57.934Z,100157.72
2022-09-20T06:09:36.518Z,100159.28
2022-09-20T06:12:16.078Z,100162.88
2022-09-20T06:15:13.138Z,100168.06
2022-09-20T06:17:53.359Z,100170.63
2022-09-20T06:20:35.378Z,100164.59
2022-09-20T06:23:04.920Z,100172.31
2022-09-20T06:25:39.539Z,100167.72
2022-09-20T06:28:36.057Z,100170.78
2022-09-20T06:31:02.871Z,100176.19
2022-09-20T06:33:30.275Z,100165.66
2022-09-20T06:36:07.381Z,100166.63
2022-09-20T06:38:47.166Z,100169.94
2022-09-20T06:41:14.145Z,100161.56
2022-09-20T06:43:40.768Z,100165.22
2022-09-20T06:46:07.475Z,100160.13
2022-09-20T06:48:34.122Z,100161.72
2022-09-20T06:51:01.711Z,100155.25
2022-09-20T06:53:32.755Z,100157.50
2022-09-20T06:56:01.245Z,100160.19
2022-09-20T06:58:27.848Z,100161.59
2022-09-20T07:00:54.424Z,100162.44
2022-09-20T07:03:21.035Z,100157.22
2022-09-20T07:05:47.849Z,100158.03
2022-09-20T07:08:14.428Z,100167.34
2022-09-20T07:10:41.072Z,100166.66
2022-09-20T07:13:07.648Z,100163.69
2022-09-20T07:15:34.990Z,100160.13
2022-09-20T07:18:01.616Z,100165.72
2022-09-20T07:20:28.595Z,100176.84
2022-09-20T07:22:55.168Z,100177.88
2022-09-20T07:25:22.471Z,100181.28
2022-09-20T07:27:50.475Z,100187.25
2022-09-20T07:30:19.536Z,100191.59
2022-09-20T07:32:46.223Z,100193.19
2022-09-20T07:35:13.148Z,100191.28
2022-09-20T07:37:40.233Z,100194.91
2022-09-20T07:40:09.843Z,100195.00
2022-09-20T07:42:36.811Z,100192.97
2022-09-20T07:45:03.950Z,100193.81
2022-09-20T07:47:31.196Z,100200.03
2022-09-20T07:49:58.091Z,100197.44
2022-09-20T07:52:24.755Z,100192.69
2022-09-20T07:54:51.344Z,100192.13
2022-09-20T07:57:18.000Z,100202.13
2022-09-20T07:59:44.584Z,100198.88
2022-09-20T08:02:15.666Z,100209.19
2022-09-20T08:04:42.298Z,100204.56
2022-09-20T08:07:09.125Z,100201.28
2022-09-20T08:09:35.697Z,100205.72
2022-09-20T08:14:49.313Z,100206.56
2022-09-20T08:17:15.912Z,100213.97
2022-09-20T08:19:42.490Z,100212.38
2022-09-20T08:22:09.075Z,100214.59
2022-09-20T08:24:35.684Z,100209.03
2022-09-20T08:27:02.374Z,100216.63
2022-09-20T08:29:28.987Z,100213.13
2022-09-20T08:31:55.599Z,100206.84
2022-09-20T08:34:22.286Z,100209.13
2022-09-20T08:36:48.856Z,100215.19
2022-09-20T08:42:14.382Z,100213.28
2022-09-20T08:44:58.911Z,100216.22
2022-09-20T08:47:27.339Z,100224.59
2022-09-20T08:52:37.346Z,100235.31
2022-09-20T08:55:15.161Z,100232.06
2022-09-20T08:57:41.711Z,100233.38
2022-09-20T09:00:16.954Z,100220.97
2022-09-20T09:02:43.876Z,100216.94
2022-09-20T09:05:30.172Z,100220.84
2022-09-20T09:07:57.042Z,100221.31
2022-09-20T09:10:23.615Z,100226.00
2022-09-20T09:12:54.390Z,100220.59
2022-09-20T09:15:41.147Z,100218.41
2022-09-20T09:18:11.525Z,100223.44
2022-09-20T09:20:41.933Z,100213.31
2022-09-20T09:23:09.025Z,100216.47
2022-09-20T09:25:39.879Z,100217.75
2022-09-20T09:28:06.498Z,100206.44
2022-09-20T09:30:42.378Z,100212.28
2022-09-20T09:33:27.680Z,100205.09
2022-09-20T09:36:05.135Z,100209.34
2022-09-20T09:38:37.117Z,100207.16
2022-09-20T09:41:06.915Z,100207.81
2022-09-20T09:43:36.421Z,100208.75
2022-09-20T09:49:13.500Z,100209.84
2022-09-20T09:51:40.389Z,100211.69
2022-09-20T09:54:07.369Z,100201.88
2022-09-20T09:57:20.801Z,100202.63
2022-09-20T10:00:22.736Z,100210.19
2022-09-20T10:03:07.603Z,100210.19
2022-09-20T10:05:40.557Z,100203.16
2022-09-20T10:08:25.341Z,100199.72
2022-09-20T10:11:16.417Z,100195.88
2022-09-20T10:14:04.457Z,100189.94
2022-09-20T10:17:11.320Z,100194.00
2022-09-20T10:20:00.351Z,100199.06
2022-09-20T10:22:38.967Z,100197.94
2022-09-20T10:25:30.698Z,100190.94
2022-09-20T10:28:08.093Z,100198.28
2022-09-20T10:30:58.027Z,100198.41
2022-09-20T10:33:27.565Z,100192.16
2022-09-20T10:36:18.811Z,100194.97
2022-09-20T10:39:00.140Z,100188.22
2022-09-20T10:41:32.729Z,100196.22
2022-09-20T10:44:27.817Z,100193.34
2022-09-20T10:47:14.138Z,100193.94
2022-09-20T10:49:47.213Z,100183.38
2022-09-20T10:52:37.399Z,100186.81
2022-09-20T10:55:30.607Z,100180.06
2022-09-20T10:58:15.338Z,100185.75
2022-09-20T11:01:17.442Z,100184.81
2022-09-20T11:03:55.993Z,100178.84
2022-09-20T11:06:22.542Z,100182.59
2022-09-20T11:08:54.467Z,100179.13
2022-09-20T11:11:38.719Z,100179.56
2022-09-20T11:14:12.283Z,100186.25
2022-09-20T11:16:55.302Z,100194.59
2022-09-20T11:19:41.447Z,100183.50
2022-09-20T11:22:24.406Z,100182.06
2022-09-20T11:24:57.523Z,100170.81
2022-09-20T11:27:30.771Z,100176.06
2022-09-20T11:30:22.070Z,100167.53
2022-09-20T11:32:58.161Z,100152.13
2022-09-20T11:35:27.752Z,100153.13
2022-09-20T11:38:10.299Z,100157.97
2022-09-20T11:40:47.619Z,100161.50
2022-09-20T11:43:16.487Z,100152.34
2022-09-20T11:45:47.323Z,100160.25
2022-09-20T11:48:23.008Z,100159.91
2022-09-20T11:50:55.182Z,100158.63
2022-09-20T11:53:37.061Z,100153.09
2022-09-20T11:56:13.027Z,100153.19
2022-09-20T11:58:48.538Z,100143.72
2022-09-20T12:01:42.362Z,100148.81
2022-09-20T12:04:34.244Z,100147.47
2022-09-20T12:07:11.497Z,100143.84
2022-09-20T12:09:44.011Z,100138.03
2022-09-20T12:12:27.722Z,100146.09
2022-09-20T12:14:59.786Z,100138.53
2022-09-20T12:17:48.546Z,100139.91
2022-09-20T12:20:50.602Z,100139.44
2022-09-20T12:23:38.760Z,100132.66
2022-09-20T12:26:06.397Z,100136.47
2022-09-20T12:28:38.236Z,100136.56
2022-09-20T12:31:19.712Z,100137.16
2022-09-20T12:34:04.211Z,100132.81
2022-09-20T12:36:33.384Z,100136.88
2022-09-20T12:39:08.570Z,100133.44
2022-09-20T12:42:09.976Z,100136.28
2022-09-20T12:44:39.259Z,100124.91
2022-09-20T12:47:11.461Z,100134.91
2022-09-20T12:49:46.627Z,100129.03
2022-09-20T12:52:30.514Z,100125.66
2022-09-20T12:54:59.419Z,100126.81
2022-09-20T12:57:32.164Z,100120.28
2022-09-20T13:00:01.975Z,100119.78
2022-09-20T13:02:58.915Z,100125.34
2022-09-20T13:05:37.775Z,100116.34
2022-09-20T13:08:19.381Z,100117.94
2022-09-20T13:10:57.971Z,100116.44
2022-09-20T13:13:32.491Z,100120.22
2022-09-20T13:16:01.940Z,100117.91
2022-09-20T13:18:29.860Z,100116.38
2022-09-20T13:20:57.850Z,100117.03
2022-09-20T13:23:28.377Z,100114.09
2022-09-20T13:25:57.521Z,100119.38
2022-09-20T13:28:34.388Z,100130.22
2022-09-20T13:31:21.111Z,100129.56
2022-09-20T13:33:48.379Z,100122.50
2022-09-20T13:36:20.494Z,100131.47
2022-09-20T13:38:47.180Z,100127.78
2022-09-20T13:41:14.014Z,100127.44
2022-09-20T13:43:43.369Z,100131.00
2022-09-20T13:46:31.451Z,100134.09
2022-09-20T13:49:14.363Z,100127.31
2022-09-20T13:51:41.034Z,100137.81
2022-09-20T13:54:18.760Z,100136.25
2022-09-20T13:56:45.916Z,100140.84
2022-09-20T13:59:18.475Z,100136.84
2022-09-20T14:01:53.889Z,100139.72
2022-09-20T14:04:24.009Z,100146.16
2022-09-20T14:06:53.162Z,100144.66
2022-09-20T14:09:33.054Z,100147.47
2022-09-20T14:12:00.451Z,100142.44
2022-09-20T14:14:28.754Z,100143.91
2022-09-20T14:16:56.822Z,100135.00
2022-09-20T14:19:30.020Z,100137.25
2022-09-20T14:21:57.420Z,100133.44
2022-09-20T14:24:42.258Z,100134.19
2022-09-20T14:27:23.978Z,100125.25
2022-09-20T14:29:54.474Z,100130.13
2022-09-20T14:32:21.013Z,100136.13
2022-09-20T14:35:03.599Z,100137.28
2022-09-20T14:37:35.415Z,100139.50
2022-09-20T14:40:20.841Z,100142.50
2022-09-20T14:42:53.159Z,100139.06
2022-09-20T14:45:26.544Z,100154.75
2022-09-20T14:48:00.550Z,100152.06
2022-09-20T14:50:31.262Z,100152.19
2022-09-20T14:53:10.978Z,100154.38
2022-09-20T14:55:56.082Z,100156.06
2022-09-20T14:58:22.726Z,100166.78
2022-09-20T15:00:56.712Z,100160.63
2022-09-20T15:03:36.591Z,100160.19
2022-09-20T15:06:03.375Z,100145.59
2022-09-20T15:08:30.282Z,100160.88
2022-09-20T15:10:56.864Z,100160.03
2022-09-20T15:13:23.577Z,100161.66
2022-09-20T15:15:51.599Z,100158.72
2022-09-20T15:18:24.595Z,100166.88
2022-09-20T15:20:51.672Z,100160.28
2022-09-20T15:23:18.551Z,100160.09
2022-09-20T15:25:46.206Z,100170.38
2022-09-20T15:28:14.823Z,100161.91
2022-09-20T15:30:41.418Z,100167.81
2022-09-20T15:33:08.522Z,100174.41
2022-09-20T15:35:35.962Z,100174.50
2022-09-20T15:38:02.527Z,100182.66
2022-09-20T15:40:29.208Z,100179.56
2022-09-20T15:42:56.618Z,100192.53
2022-09-20T15:45:23.286Z,100194.03
2022-09-20T15:47:49.942Z,100202.28
2022-09-20T15:50:16.513Z,100206.97
2022-09-20T15:52:43.139Z,100209.25
2022-09-20T15:55:09.752Z,100211.81
2022-09-20T15:57:36.321Z,100211.47
2022-09-20T16:00:03.290Z,100218.06
2022-09-20T16:02:29.883Z,100211.06
2022-09-20T16:04:56.493Z,100218.50
2022-09-20T16:07:24.143Z,100221.31
2022-09-20T16:09:51.095Z,100223.00
2022-09-20T16:12:17.663Z,100223.53
2022-09-20T16:14:44.234Z,100221.66
2022-09-20T16:17:10.864Z,100220.47
2022-09-20T16:19:37.494Z,100228.31
2022-09-20T16:22:04.802Z,100219.44
2022-09-20T16:24:34.332Z,100224.56
2022-09-20T16:27:02.655Z,100223.72
2022-09-20T16:29:30.882Z,100223.91
2022-09-20T16:31:59.333Z,100219.97
2022-09-20T16:34:28.488Z,100223.16
2022-09-20T16:36:59.885Z,100219.66
2022-09-20T16:39:27.335Z,100219.38
2022-09-20T16:41:59.055Z,100227.16
2022-09-20T16:44:25.646Z,100227.88
2022-09-20T16:46:52.242Z,100229.38
2022-09-20T16:49:18.840Z,100229.66
2022-09-20T16:51:46.309Z,100228.59
2022-09-20T16:54:17.189Z,100224.28
2022-09-20T16:56:46.311Z,100215.25
2022-09-20T16:59:14.381Z,100233.31
2022-09-20T17:01:41.216Z,100225.63
2022-09-20T17:04:08.547Z,100231.09
2022-09-20T17:06:37.476Z,100226.13
2022-09-20T17:09:05.927Z,100231.91
2022-09-20T17:11:35.460Z,100235.13
2022-09-20T17:14:02.105Z,100227.78
2022-09-20T17:16:34.084Z,100222.16
2022-09-20T17:19:03.667Z,100230.94
2022-09-20T17:21:30.531Z,100230.84
2022-09-20T17:23:59.232Z,100231.22
2022-09-20T17:26:28.339Z,100234.69
2022-09-20T17:28:55.807Z,100236.78
2022-09-20T17:31:27.731Z,100240.16
2022-09-20T17:33:54.631Z,100236.19
2022-09-20T17:36:21.399Z,100234.03
2022-09-20T17:38:53.904Z,100237.47
2022-09-20T17:41:21.742Z,100236.41
2022-09-20T17:43:53.157Z,100241.75
2022-09-20T17:46:24.376Z,100245.00
2022-09-20T17:48:55.949Z,100253.41
2022-09-20T17:51:25.403Z,100254.19
2022-09-20T17:53:52.913Z,100249.91
2022-09-20T17:56:20.055Z,100253.63
2022-09-20T17:58:46.622Z,100253.50
2022-09-20T18:01:16.647Z,100259.97
2022-09-20T18:03:45.916Z,100261.00
2022-09-20T18:06:22.014Z,100264.50
2022-09-20T18:08:53.744Z,100270.06
2022-09-20T18:11:23.037Z,100268.16
2022-09-20T18:13:49.609Z,100272.31
2022-09-20T18:16:17.432Z,100283.22
2022-09-20T18:18:45.334Z,100283.03
2022-09-20T18:21:17.782Z,100281.22
2022-09-20T18:23:45.837Z,100283.28
2022-09-20T18:26:23.733Z,100279.72
2022-09-20T18:29:10.316Z,100282.56
2022-09-20T18:31:41.819Z,100286.47
2022-09-20T18:34:15.235Z,100292.53
2022-09-20T18:36:41.904Z,100293.63
2022-09-20T18:39:08.694Z,100298.06
2022-09-20T18:41:37.993Z,100296.66
2022-09-20T18:44:06.113Z,100309.44
2022-09-20T18:46:32.829Z,100302.31
2022-09-20T18:49:01.162Z,100300.34
2022-09-20T18:51:28.310Z,100300.00
2022-09-20T18:53:55.426Z,100309.75
2022-09-20T18:56:24.400Z,100306.78
2022-09-20T18:58:59.202Z,100304.22
2022-09-20T19:01:49.813Z,100302.81
2022-09-20T19:04:41.354Z,100302.22
2022-09-20T19:07:16.332Z,100309.88
2022-09-20T19:09:56.427Z,100307.88
2022-09-20T19:12:44.510Z,100312.25
2022-09-20T19:15:29.880Z,100312.00
2022-09-20T19:18:02.076Z,100313.09
2022-09-20T19:20:41.673Z,100310.69
2022-09-20T19:23:36.619Z,100316.28
2022-09-20T19:26:10.804Z,100309.66
2022-09-20T19:28:37.692Z,100317.56
2022-09-20T19:31:04.639Z,100312.78
2022-09-20T19:33:31.450Z,100307.53
2022-09-20T19:35:58.668Z,100311.63
2022-09-20T19:38:28.261Z,100313.53
2022-09-20T19:41:03.633Z,100312.56
2022-09-20T19:43:43.745Z,100317.44
2022-09-20T19:46:13.254Z,100318.31
2022-09-20T19:48:50.158Z,100328.25
2022-09-20T19:51:17.010Z,100326.22
2022-09-20T19:53:43.910Z,100335.31
2022-09-20T19:56:28.073Z,100329.03
2022-09-20T19:58:55.811Z,100335.28
2022-09-20T20:01:24.119Z,100330.22
2022-09-20T20:03:52.210Z,100331.56
2022-09-20T20:06:27.459Z,100335.50
2022-09-20T20:08:53.965Z,100341.38
2022-09-20T20:11:45.508Z,100344.59
2022-09-20T20:14:32.313Z,100351.28
2022-09-20T20:17:40.890Z,100351.19
2022-09-20T20:20:43.788Z,100355.72
2022-09-20T20:23:38.727Z,100357.34
2022-09-20T20:26:20.141Z,100363.66
2022-09-20T20:28:47.405Z,100368.06
2022-09-20T20:31:14.563Z,100366.00
2022-09-20T20:33:41.191Z,100361.47
2022-09-20T20:36:07.795Z,100362.50
2022-09-20T20:38:36.183Z,100369.53
2022-09-20T20:41:14.030Z,100368.84
2022-09-20T20:43:42.835Z,100372.91
2022-09-20T20:46:12.179Z,100376.44
2022-09-20T20:48:38.815Z,100376.88
2022-09-20T20:51:17.717Z,100380.16
2022-09-20T20:53:50.041Z,100379.06
2022-09-20T20:56:19.481Z,100379.34
2022-09-20T20:58:47.810Z,100378.97
2022-09-20T21:01:18.218Z,100382.91
2022-09-20T21:03:55.208Z,100380.97
2022-09-20T21:06:24.652Z,100382.06
2022-09-20T21:08:51.340Z,100384.50
2022-09-20T21:11:21.083Z,100382.94
2022-09-20T21:13:47.637Z,100386.38
2022-09-20T21:16:16.665Z,100391.50
2022-09-20T21:18:45.333Z,100391.44
2022-09-20T21:21:32.193Z,100389.44
2022-09-20T21:24:04.664Z,100392.66
2022-09-20T21:26:32.670Z,100398.22
2022-09-20T21:29:01.701Z,100397.53
2022-09-20T21:31:31.564Z,100396.72
2022-09-20T21:33:58.867Z,100389.66
2022-09-20T21:36:28.076Z,100395.19
2022-09-20T21:38:54.743Z,100398.38
2022-09-20T21:41:29.786Z,100394.34
2022-09-20T21:43:59.054Z,100400.25
2022-09-20T21:46:28.753Z,100405.28
2022-09-20T21:48:57.129Z,100401.38
2022-09-20T21:51:25.410Z,100396.69
2022-09-20T21:53:55.989Z,100404.22
2022-09-20T21:56:22.718Z,100397.34
2022-09-20T21:58:49.323Z,100398.19
2022-09-20T22:01:18.380Z,100401.50
2022-09-20T22:03:50.318Z,100398.88
2022-09-20T22:06:22.364Z,100406.66
2022-09-20T22:08:51.799Z,100404.75
2022-09-20T22:11:20.971Z,100405.09
2022-09-20T22:13:52.715Z,100404.94
2022-09-20T22:16:22.619Z,100402.56
2022-09-20T22:18:49.190Z,100398.41
2022-09-20T22:21:19.061Z,100403.69
2022-09-20T22:23:49.114Z,100393.78
2022-09-20T22:26:18.242Z,100401.63
2022-09-20T22:28:44.960Z,100406.19
2022-09-20T22:31:14.780Z,100408.06
2022-09-20T22:33:45.210Z,100399.47
2022-09-20T22:36:15.208Z,100409.38
2022-09-20T22:38:43.007Z,100415.31
2022-09-20T22:41:11.077Z,100408.91
2022-09-20T22:43:38.235Z,100403.38
2022-09-20T22:46:08.940Z,100403.88
2022-09-20T22:48:36.206Z,100412.31
2022-09-20T22:51:09.771Z,100408.19
2022-09-20T22:53:36.441Z,100405.72
2022-09-20T22:56:18.677Z,100411.94
2022-09-20T22:58:47.999Z,100401.94
2022-09-20T23:01:17.912Z,100404.63
2022-09-20T23:03:54.079Z,100410.88
2022-09-20T23:06:32.264Z,100407.41
2022-09-20T23:09:00.921Z,100405.72
2022-09-20T23:11:29.056Z,100402.75
2022-09-20T23:13:58.343Z,100402.56
2022-09-20T23:16:30.049Z,100403.31
2022-09-20T23:18:58.406Z,100403.19
2022-09-20T23:21:27.365Z,100407.38
2022-09-20T23:23:56.902Z,100407.06
2022-09-20T23:26:24.448Z,100412.47
2022-09-20T23:29:02.683Z,100400.47
2022-09-20T23:31:30.581Z,100404.47
2022-09-20T23:33:59.598Z,100415.50
2022-09-20T23:36:29.211Z,100412.09
2022-09-20T23:38:56.646Z,100412.06
2022-09-20T23:41:25.162Z,100410.16
2022-09-20T23:43:52.650Z,100415.69
2022-09-20T23:46:22.113Z,100418.94
2022-09-20T23:48:48.840Z,100421.78
2022-09-20T23:51:17.955Z,100422.59
2022-09-20T23:53:45.521Z,100421.50
2022-09-20T23:56:13.235Z,100414.28
2022-09-20T23:58:42.463Z,100419.53
